Página principal
METAR-TAF:

METAR-TAF

Aeroportos :

Aeroporto de Ísafjörður

Ísafjörður, Islândia

latitude: 66-03-29N, longitude: 23-08-07W, altura: 2 m

Observação actual do tempo

O boletim foi feito há 30 minutos, às 13:00 UTC
Vento 14 kt de nordeste
Temperatura 11°C
Humidade 76%
Pressão 1007 hPa
Visibilidade 10 km ou mais
Poucas nuvensa uma altura de 1800 ft
Nuvens dispersasa uma altura de 2500 ft
Nuvens fragmentadasa uma altura de 3500 ft

METAR: BIIS 201300Z 04014KT 9999 FEW018 SCT025 BKN035 11/07 Q1007

Hora: 13:30 (13:30 UTC)

Previsão

O boletim foi feito há 3 horas e 17 minutos, às 10:13 UTC
Previsão válida de 20 às 11 UTC a 20 às 20 UTC
Vento 16 kt de es-nordeste
Visibilidade 10 km ou mais
Nuvens dispersasa uma altura de 2000 ft
Encobertoa uma altura de 3000 ft

TAF: BIIS 201013Z 2011/2020 06016KT 9999 SCT020 OVC030

Observações e previsões do tempo de mais de 4000 aeroportos (mensagens METAR e TAF).

As estações disponíveis são os pontos amarelos e vermelhos sobre o mapa.

Mova o rato sobre o mapa para ver o nome da estação.

Depois clique no ponto para visualizar as observações e previsões meteorológicas.

Para alterar o mapa : clique nos botões verdes com uma cruz preta para aumentar o zoom; no botão verde com uma pitada de zoom; ou nas setas verdes para mapas adjacentes.


METAR-TAF: